Hovedside
METAR-TAF:

METAR-TAF

Lufthavner :

Kirkenes lufthavn. Høybuktmoen

Kirkenes, Norge

breddegrad: 69-44N, lengdegrad: 029-54E, høyde over havet: 9 m

Gjeldene værobservasjon

Denne rapporten ble laget for 33 minutter siden, klokken 19:20 UTC
Vind 11 kt fra Sør-sørøst
Temperatur 11°C
Luftfuktighet 87%
Trykk 1011 hPa
Sikt 10 km eller mer
Få skyer i en høyde av 1000 ft
Brutte skyer i en høyde av 4000 ft

METAR: ENKR 161920Z 16011KT 9999 FEW010 BKN040 11/09 Q1011 RMK WIND 731FT 16021KT

Tid: 21:53 (19:53 UTC)

Varsel

Denne rapporten ble laget for 2 timer og 53 minutter siden, klokken 17:00 UTC
Varsel gyldig fra 16. klokken 18 UTC til 17. klokken 03 UTC
Vind 10 kt fra Sør
Sikt 10 km eller mer
Få skyer i en høyde av 1500 ft
Brutte skyer i en høyde av 4000 ft

TAF: ENKR 161700Z 1618/1703 18010KT 9999 FEW015 BKN040

Værobservasjoner og værvarsel for over 4000 flyplasser (METAR- og TAF-rapporter).

Tilgjengelige stasjoner er representert av de røde og gule prikkene på kartet.

Hold musepekeren over prikken for å se navnet på stasjonen.

Klikk så for å se værobservasjoner og -varsler.

For å forandre kartet kan du klikke på den grønne knappen med svart kryss for å zoome inn, på den grønne knappen med strek for å zoome ut, eller på de grønne pilene for å se tilstøtende kart.


METAR-TAF: